Time;durP1;ratioP1;P1;durP2;ratioP2;P2;SDS_P1;SDS_P2;PMS_P1;PMS_P2;Temp;Humidity;BMP_temperature;BMP_pressure;BME280_temperature;BME280_humidity;BME280_pressure;Samples;Min_cycle;Max_cycle;Signal;HPM_P1;HPM_P2
2022/03/12 00:00:41;;;;;;;56.73;5.73;;;;;;;20.36;56.54;100314.25;7313373;19;130309;-41
2022/03/12 00:03:08;;;;;;;27.48;3.90;;;;;;;20.35;57.00;100318.66;7313668;19;130373;-40
2022/03/12 00:05:35;;;;;;;28.45;4.07;;;;;;;20.36;56.94;100309.03;7314631;19;128968;-39
2022/03/12 00:08:05;;;;;;;26.80;3.88;;;;;;;20.35;56.50;100310.81;7313969;19;129046;-39
2022/03/12 00:10:33;;;;;;;29.35;3.97;;;;;;;20.33;57.53;100307.47;7314249;19;130773;-39
2022/03/12 00:13:01;;;;;;;34.90;4.70;;;;;;;20.35;56.68;100304.75;7313760;19;130781;-39
2022/03/12 00:15:29;;;;;;;44.00;5.22;;;;;;;20.34;57.34;100308.31;7313544;19;129219;-40
2022/03/12 00:17:54;;;;;;;28.30;3.80;;;;;;;20.34;58.04;100308.31;7313806;19;129021;-39
2022/03/12 00:20:22;;;;;;;9.38;2.53;;;;;;;20.23;56.87;100279.56;7312744;19;159005;-40
2022/03/12 00:22:50;;;;;;;21.35;3.22;;;;;;;20.34;57.00;100297.88;7315850;19;130727;-38
2022/03/12 00:25:24;;;;;;;25.35;3.38;;;;;;;20.34;56.89;100306.56;7314849;19;129317;-41
2022/03/12 00:27:51;;;;;;;26.77;3.83;;;;;;;20.32;57.09;100292.78;7314650;19;129036;-37
2022/03/12 00:30:22;;;;;;;29.45;4.00;;;;;;;20.32;57.03;100294.53;7315339;19;130492;-39
2022/03/12 00:32:48;;;;;;;23.98;3.28;;;;;;;20.29;57.75;100289.56;7313803;19;130342;-40
2022/03/12 00:35:15;;;;;;;25.17;3.80;;;;;;;20.32;57.51;100295.38;7314675;19;129699;-39
2022/03/12 00:37:40;;;;;;;19.97;3.27;;;;;;;20.32;57.40;100290.16;7312868;19;129177;-39
2022/03/12 00:40:06;;;;;;;30.02;3.80;;;;;;;20.30;57.70;100286.81;7312034;19;158080;-39
2022/03/12 00:42:31;;;;;;;44.33;5.07;;;;;;;20.30;57.44;100291.19;7312995;19;132080;-38
2022/03/12 00:44:57;;;;;;;29.52;3.88;;;;;;;20.31;57.06;100274.59;7313249;19;129979;-39
2022/03/12 00:47:23;;;;;;;26.13;3.50;;;;;;;20.31;57.30;100277.22;7312724;19;129727;-40
2022/03/12 00:49:50;;;;;;;23.40;3.07;;;;;;;20.28;57.50;100293.13;7312629;19;159410;-39
2022/03/12 00:52:16;;;;;;;21.03;3.17;;;;;;;20.33;57.29;100270.91;7312476;19;130349;-38
2022/03/12 00:54:41;;;;;;;23.30;3.15;;;;;;;20.30;58.11;100275.53;7314825;19;128983;-38
2022/03/12 00:57:10;;;;;;;26.73;3.42;;;;;;;20.31;57.67;100272.00;7313118;19;128944;-39
2022/03/12 00:59:36;;;;;;;25.58;3.40;;;;;;;20.28;56.98;100267.81;7312608;19;131005;-39
2022/03/12 01:02:01;;;;;;;29.75;3.88;;;;;;;20.31;57.60;100279.81;7313824;19;130369;-39
2022/03/12 01:04:27;;;;;;;29.25;3.95;;;;;;;20.31;57.70;100266.78;7313913;19;128978;-39
2022/03/12 01:06:52;;;;;;;27.90;3.50;;;;;;;20.28;57.39;100272.22;7313354;19;129921;-39
2022/03/12 01:09:17;;;;;;;22.13;3.33;;;;;;;20.28;57.30;100277.44;7309360;19;158184;-39
2022/03/12 01:11:43;;;;;;;24.05;3.22;;;;;;;20.25;57.72;100273.28;7311665;19;159194;-40
2022/03/12 01:14:08;;;;;;;30.42;3.85;;;;;;;20.27;57.64;100275.78;7312475;19;129136;-39
2022/03/12 01:16:34;;;;;;;23.17;2.92;;;;;;;20.28;57.21;100267.81;7313262;19;129794;-39
2022/03/12 01:18:59;;;;;;;30.45;3.70;;;;;;;20.33;57.29;100264.84;7310547;19;129226;-39
2022/03/12 01:21:25;;;;;;;23.38;2.97;;;;;;;20.30;57.36;100265.09;7309890;19;158613;-39
2022/03/12 01:23:50;;;;;;;24.25;3.10;;;;;;;20.32;56.97;100263.19;7312328;19;128998;-39
2022/03/12 01:26:18;;;;;;;46.42;4.78;;;;;;;20.20;56.76;100254.50;7311495;19;129433;-38
2022/03/12 01:28:44;;;;;;;28.20;3.30;;;;;;;20.30;57.03;100259.88;7310224;19;129738;-37
2022/03/12 01:31:10;;;;;;;21.25;3.33;;;;;;;20.28;57.56;100251.34;7311822;19;129212;-39
2022/03/12 01:33:35;;;;;;;26.65;3.22;;;;;;;20.27;57.40;100244.44;7312031;19;129013;-38
2022/03/12 01:36:00;;;;;;;28.07;3.83;;;;;;;20.25;58.26;100246.31;7310668;19;144923;-40
2022/03/12 01:38:32;;;;;;;13.88;2.40;;;;;;;20.26;57.72;100248.81;7311220;19;130191;-40
2022/03/12 01:41:02;;;;;;;27.48;3.30;;;;;;;20.26;57.69;100242.78;7311464;19;129276;-39
2022/03/12 01:43:32;;;;;;;17.15;2.47;;;;;;;20.28;57.63;100259.97;7312967;19;128968;-37
2022/03/12 01:46:03;;;;;;;23.55;3.00;;;;;;;20.27;57.84;100245.28;7311863;19;129420;-37
2022/03/12 01:48:31;;;;;;;23.15;3.00;;;;;;;20.27;57.56;100241.81;7311613;19;130691;-41
2022/03/12 01:50:57;;;;;;;37.58;4.20;;;;;;;20.25;57.28;100246.31;7309082;19;159358;-38
2022/03/12 01:53:26;;;;;;;24.53;2.97;;;;;;;20.23;57.39;100241.22;7312361;19;129109;-40
2022/03/12 01:55:53;;;;;;;38.65;4.40;;;;;;;20.25;57.36;100252.38;7311923;19;128870;-41
2022/03/12 01:58:19;;;;;;;22.52;2.83;;;;;;;20.28;57.45;100240.91;7309643;19;131052;-40
2022/03/12 02:00:47;;;;;;;32.10;3.83;;;;;;;20.24;58.38;100242.91;7311557;19;130396;-40
2022/03/12 02:03:14;;;;;;;21.45;2.72;;;;;;;20.21;58.37;100234.47;7311486;19;129350;-39
2022/03/12 02:05:40;;;;;;;28.33;3.35;;;;;;;20.21;58.01;100234.47;7310767;19;129225;-38
2022/03/12 02:08:07;;;;;;;32.20;3.83;;;;;;;20.24;57.20;100227.25;7309626;19;129656;-38
2022/03/12 02:10:36;;;;;;;21.75;2.72;;;;;;;20.22;57.52;100236.13;7310201;19;130423;-41
2022/03/12 02:13:01;;;;;;;27.30;3.08;;;;;;;20.19;57.56;100220.69;7311472;19;129031;-40
2022/03/12 02:15:27;;;;;;;26.73;3.15;;;;;;;20.23;57.38;100235.19;7310992;19;129161;-38
2022/03/12 02:17:53;;;;;;;24.88;3.03;;;;;;;20.25;57.96;100231.50;7310549;19;130218;-39
2022/03/12 02:20:20;;;;;;;10.80;2.20;;;;;;;20.16;57.49;100232.19;7310292;19;160142;-39
2022/03/12 02:22:53;;;;;;;30.20;3.60;;;;;;;20.23;57.79;100243.03;7310975;19;130827;-38
2022/03/12 02:25:25;;;;;;;20.73;2.72;;;;;;;20.20;57.79;100230.16;7312159;19;129246;-39
2022/03/12 02:27:50;;;;;;;21.08;2.78;;;;;;;20.25;57.38;100244.56;7309861;19;129125;-40
2022/03/12 02:30:15;;;;;;;22.02;2.55;;;;;;;20.13;57.14;100215.91;7308252;19;155901;-38
2022/03/12 02:32:42;;;;;;;29.48;3.20;;;;;;;20.23;57.81;100222.13;7308579;19;154554;-39
2022/03/12 02:35:10;;;;;;;42.38;4.32;;;;;;;20.25;57.15;100225.44;7310888;19;129373;-39
2022/03/12 02:37:35;;;;;;;12.95;2.33;;;;;;;20.27;56.96;100226.16;7310327;19;130741;-38
2022/03/12 02:40:05;;;;;;;86.55;8.18;;;;;;;20.09;58.07;100210.09;7305127;19;150217;-38
2022/03/12 02:42:31;;;;;;;13.90;2.47;;;;;;;20.19;58.52;100220.69;7313421;19;129263;-39
2022/03/12 02:44:59;;;;;;;32.43;3.67;;;;;;;20.18;57.90;100229.47;7316846;19;128962;-38
2022/03/12 02:47:32;;;;;;;25.52;3.00;;;;;;;20.21;58.83;100226.63;7314016;19;130242;-39
2022/03/12 02:50:06;;;;;;;48.47;4.97;;;;;;;20.23;57.86;100222.13;7315356;19;129465;-38
2022/03/12 02:52:32;;;;;;;28.40;3.40;;;;;;;20.19;57.63;100215.47;7313839;19;129103;-39
2022/03/12 02:54:59;;;;;;;27.00;3.28;;;;;;;20.23;57.51;100216.91;7316841;19;128852;-39
2022/03/12 02:57:26;;;;;;;49.15;4.65;;;;;;;20.18;57.82;100214.63;7313540;19;129357;-41
2022/03/12 02:59:53;;;;;;;27.42;3.25;;;;;;;20.21;58.04;100213.56;7312718;19;130382;-39
2022/03/12 03:02:25;;;;;;;18.20;2.60;;;;;;;20.19;58.62;100231.13;7316180;19;129056;-38
2022/03/12 03:04:51;;;;;;;29.60;3.55;;;;;;;20.21;57.72;100213.56;7313312;19;130491;-39
2022/03/12 03:07:17;;;;;;;21.53;2.57;;;;;;;20.22;57.68;100223.06;7316103;19;129730;-38
2022/03/12 03:09:42;;;;;;;20.40;3.00;;;;;;;20.17;57.71;100217.34;7311087;19;129790;-38
2022/03/12 03:12:09;;;;;;;31.00;3.43;;;;;;;20.21;57.62;100219.59;7314752;19;154710;-39
2022/03/12 03:14:37;;;;;;;17.25;2.97;;;;;;;20.19;57.92;100218.91;7314187;19;130023;-37
2022/03/12 03:17:03;;;;;;;34.35;4.00;;;;;;;20.15;57.76;100219.25;7313678;19;130247;-38
2022/03/12 03:19:29;;;;;;;24.97;3.03;;;;;;;20.18;57.56;100216.44;7312005;19;130788;-39
2022/03/12 03:21:56;;;;;;;35.25;3.70;;;;;;;20.15;58.25;100206.19;7314726;19;131218;-38
2022/03/12 03:24:22;;;;;;;37.42;4.30;;;;;;;20.18;57.86;100213.81;7312523;19;130188;-42
2022/03/12 03:26:47;;;;;;;32.08;3.35;;;;;;;20.14;58.36;100207.13;7312232;19;130242;-39
2022/03/12 03:29:15;;;;;;;35.77;3.67;;;;;;;20.18;57.27;100204.19;7311854;19;157811;-40
2022/03/12 03:31:40;;;;;;;58.13;5.13;;;;;;;20.17;57.61;100197.31;7314349;19;129227;-40
2022/03/12 03:34:06;;;;;;;38.53;3.92;;;;;;;20.17;57.85;100189.47;7314545;19;128987;-39
2022/03/12 03:36:31;;;;;;;25.85;3.05;;;;;;;20.16;57.71;100190.41;7312399;19;159103;-39
2022/03/12 03:38:56;;;;;;;23.45;2.72;;;;;;;20.08;57.28;100165.81;7311917;19;131165;-39
2022/03/12 03:41:22;;;;;;;21.98;2.90;;;;;;;20.15;57.48;100188.75;7313112;19;128970;-40
2022/03/12 03:43:48;;;;;;;24.80;3.07;;;;;;;20.19;57.70;100187.59;7313590;19;146409;-41
2022/03/12 03:46:20;;;;;;;26.20;3.05;;;;;;;20.15;58.81;100193.13;7314183;19;130015;-41
2022/03/12 03:48:50;;;;;;;21.83;2.55;;;;;;;20.14;58.23;100201.91;7312134;19;130410;-42
2022/03/12 03:51:16;;;;;;;45.25;4.50;;;;;;;20.17;58.02;100186.03;7311571;19;129809;-41
2022/03/12 03:53:41;;;;;;;24.65;2.65;;;;;;;20.18;57.72;100192.94;7313701;19;129487;-40
2022/03/12 03:56:06;;;;;;;31.40;3.30;;;;;;;20.16;57.80;100192.22;7311565;19;129786;-41
2022/03/12 03:58:34;;;;;;;40.43;4.37;;;;;;;20.13;58.20;100190.63;7308254;19;158717;-41
2022/03/12 04:01:03;;;;;;;32.70;3.72;;;;;;;20.15;57.98;100191.38;7313179;19;129496;-38
2022/03/12 04:03:32;;;;;;;6.57;1.63;;;;;;;20.07;58.11;100179.81;7313879;19;129865;-39
2022/03/12 04:05:58;;;;;;;25.40;2.75;;;;;;;20.16;57.36;100200.84;7313850;19;130936;-39
2022/03/12 04:08:24;;;;;;;29.38;3.30;;;;;;;20.12;58.02;100203.78;7311754;19;130403;-39
2022/03/12 04:10:49;;;;;;;24.25;2.58;;;;;;;20.16;57.83;100203.47;7313836;19;129296;-39
2022/03/12 04:13:19;;;;;;;44.70;4.63;;;;;;;20.15;57.81;100201.81;7311600;19;129031;-39
2022/03/12 04:15:45;;;;;;;19.95;2.55;;;;;;;20.13;57.33;100206.28;7312417;19;130117;-38
2022/03/12 04:18:12;;;;;;;44.45;4.35;;;;;;;20.16;57.74;100210.47;7311127;19;129604;-38
2022/03/12 04:20:38;;;;;;;17.05;2.40;;;;;;;20.14;58.21;100207.13;7313418;19;130409;-39
2022/03/12 04:23:04;;;;;;;22.50;2.88;;;;;;;20.16;57.28;100210.47;7314239;19;129495;-39
2022/03/12 04:25:31;;;;;;;44.50;4.63;;;;;;;20.15;57.73;100208.81;7312698;19;130193;-40
2022/03/12 04:27:56;;;;;;;24.60;2.85;;;;;;;20.14;57.38;100207.97;7312409;19;129907;-38
2022/03/12 04:30:22;;;;;;;29.15;3.22;;;;;;;20.03;57.59;100199.28;7312869;19;128836;-39
2022/03/12 04:32:47;;;;;;;25.33;2.88;;;;;;;20.16;57.32;100215.69;7311232;19;153964;-38
2022/03/12 04:35:15;;;;;;;42.05;4.20;;;;;;;20.14;57.92;100212.34;7309300;19;153713;-41
2022/03/12 04:37:41;;;;;;;26.08;2.85;;;;;;;20.17;57.72;100212.13;7309971;19;130565;-38
2022/03/12 04:40:10;;;;;;;33.15;3.38;;;;;;;20.16;57.31;100208.69;7308829;19;154537;-38
2022/03/12 04:42:42;;;;;;;18.40;2.38;;;;;;;20.06;57.32;100191.19;7313136;19;129987;-39
2022/03/12 04:45:08;;;;;;;24.15;2.83;;;;;;;20.15;57.33;100214.03;7311710;19;130250;-38
2022/03/12 04:47:34;;;;;;;21.50;2.38;;;;;;;20.14;57.89;100217.56;7310575;19;130699;-39
2022/03/12 04:49:59;;;;;;;28.17;2.90;;;;;;;20.14;57.48;100217.56;7313247;19;129630;-39
2022/03/12 04:52:25;;;;;;;39.78;3.83;;;;;;;20.13;58.02;100215.91;7310494;19;128890;-38
2022/03/12 04:54:50;;;;;;;31.60;3.33;;;;;;;20.09;58.57;100220.53;7309992;19;157396;-40
2022/03/12 04:57:15;;;;;;;24.88;2.67;;;;;;;20.16;57.62;100228.75;7310408;19;146722;-39
2022/03/12 04:59:41;;;;;;;23.70;2.72;;;;;;;20.11;58.63;100215.19;7310373;19;129203;-39
2022/03/12 05:02:11;;;;;;;27.38;3.13;;;;;;;20.09;57.90;100227.50;7310473;19;153927;-38
2022/03/12 05:04:36;;;;;;;20.58;2.20;;;;;;;20.08;58.06;100221.44;7310088;19;130246;-40
2022/03/12 05:07:13;;;;;;;26.60;2.63;;;;;;;20.05;58.97;100228.66;7311318;19;159438;-38
2022/03/12 05:09:38;;;;;;;21.63;2.50;;;;;;;20.03;58.40;100218.34;7307887;19;128974;-39
2022/03/12 05:12:05;;;;;;;31.95;3.28;;;;;;;19.98;58.19;100204.81;7310139;19;154559;-39
2022/03/12 05:14:32;;;;;;;19.35;2.17;;;;;;;20.08;59.02;100218.03;7311595;19;130158;-40
2022/03/12 05:16:57;;;;;;;44.00;4.28;;;;;;;20.08;58.02;100233.69;7310587;19;130406;-40
2022/03/12 05:19:22;;;;;;;24.95;2.65;;;;;;;20.07;58.13;100211.97;7308201;19;153472;-42
2022/03/12 05:21:48;;;;;;;44.97;4.43;;;;;;;20.07;57.52;100222.41;7309616;19;154469;-40
2022/03/12 05:24:14;;;;;;;21.27;2.37;;;;;;;20.10;57.97;100221.34;7308783;19;158370;-42
2022/03/12 05:26:40;;;;;;;22.88;2.58;;;;;;;20.08;58.01;100233.69;7309881;19;130994;-38
2022/03/12 05:29:05;;;;;;;26.33;2.80;;;;;;;20.07;58.16;100225.03;7310467;19;129273;-41
2022/03/12 05:31:30;;;;;;;14.83;2.20;;;;;;;20.11;58.03;100238.69;7309490;19;152715;-41
2022/03/12 05:33:55;;;;;;;35.67;3.83;;;;;;;20.07;58.16;100227.63;7310458;19;135658;-39
2022/03/12 05:36:21;;;;;;;28.60;2.75;;;;;;;20.09;57.92;100236.19;7309832;19;130297;-40
2022/03/12 05:38:46;;;;;;;29.88;3.20;;;;;;;20.08;57.76;100238.91;7308075;19;154514;-41
2022/03/12 05:41:12;;;;;;;26.17;2.75;;;;;;;20.07;58.36;100243.28;7310914;19;129139;-40
2022/03/12 05:43:44;;;;;;;28.80;3.22;;;;;;;20.06;57.93;100246.84;7311536;19;130603;-38
2022/03/12 05:46:11;;;;;;;29.30;3.17;;;;;;;20.07;57.89;100253.72;7307474;19;130892;-38
2022/03/12 05:48:37;;;;;;;22.25;2.60;;;;;;;19.96;58.31;100226.75;7308517;19;130172;-40
2022/03/12 05:51:04;;;;;;;34.47;3.27;;;;;;;20.11;57.19;100241.28;7309463;19;129225;-40
2022/03/12 05:53:30;;;;;;;31.02;3.40;;;;;;;20.05;58.01;100249.56;7306863;19;130160;-38
2022/03/12 05:55:55;;;;;;;41.73;4.07;;;;;;;20.04;58.45;100247.91;7309051;19;129224;-39
2022/03/12 05:58:24;;;;;;;54.45;5.15;;;;;;;20.07;57.89;100248.50;7309608;19;129454;-39
2022/03/12 06:00:54;;;;;;;40.25;3.83;;;;;;;20.06;57.69;100246.84;7310281;19;129513;-40
2022/03/12 06:03:20;;;;;;;23.63;2.70;;;;;;;20.05;58.04;100255.63;7309327;19;130301;-38
2022/03/12 06:05:46;;;;;;;33.50;3.33;;;;;;;20.11;57.75;100254.34;7308502;19;129732;-38
2022/03/12 06:08:14;;;;;;;29.83;3.00;;;;;;;20.05;58.03;100260.00;7307784;19;129180;-40
2022/03/12 06:10:44;;;;;;;13.60;2.08;;;;;;;20.03;58.05;100265.31;7310367;19;129170;-39
2022/03/12 06:13:10;;;;;;;42.53;4.07;;;;;;;20.07;57.57;100271.16;7311035;19;129513;-38
2022/03/12 06:15:38;;;;;;;15.97;2.13;;;;;;;20.11;57.68;100270.00;7310752;19;130767;-38
2022/03/12 06:18:03;;;;;;;15.77;2.00;;;;;;;20.08;57.84;100265.00;7316840;19;128988;-39
2022/03/12 06:20:29;;;;;;;22.95;2.40;;;;;;;20.09;58.07;100266.66;7315232;19;153178;-38
2022/03/12 06:22:54;;;;;;;18.73;2.17;;;;;;;20.04;58.05;100263.56;7316974;19;130645;-39
2022/03/12 06:25:22;;;;;;;37.92;3.85;;;;;;;20.05;57.36;100273.88;7314357;19;130402;-39
2022/03/12 06:27:52;;;;;;;33.35;3.45;;;;;;;20.04;57.61;100280.06;7317296;19;130018;-38
2022/03/12 06:30:17;;;;;;;23.45;2.55;;;;;;;20.06;57.47;100272.13;7316970;19;129074;-40
2022/03/12 06:32:43;;;;;;;29.13;3.28;;;;;;;19.94;57.72;100262.56;7315506;19;148517;-39
2022/03/12 06:35:10;;;;;;;29.10;2.83;;;;;;;20.01;57.63;100274.22;7316848;19;130679;-39
2022/03/12 06:37:35;;;;;;;30.00;3.10;;;;;;;20.04;57.52;100279.22;7315061;19;129810;-39
2022/03/12 06:40:00;;;;;;;10.45;1.70;;;;;;;20.08;57.81;100280.69;7313942;19;137001;-39
2022/03/12 06:42:29;;;;;;;31.50;3.08;;;;;;;20.05;57.75;100280.88;7314602;19;158248;-39
2022/03/12 06:44:55;;;;;;;24.38;2.40;;;;;;;20.07;57.38;100281.59;7314969;19;130862;-39
2022/03/12 06:47:22;;;;;;;34.80;3.43;;;;;;;20.03;57.70;100281.00;7316264;19;128896;-39
2022/03/12 06:49:48;;;;;;;23.13;2.60;;;;;;;20.01;57.80;100289.88;7314524;19;129517;-38
2022/03/12 06:52:13;;;;;;;42.08;3.78;;;;;;;20.07;57.59;100281.59;7314292;19;158311;-39
2022/03/12 06:54:38;;;;;;;36.35;3.40;;;;;;;20.07;57.98;100279.00;7311593;19;158514;-41
2022/03/12 06:57:04;;;;;;;24.13;2.40;;;;;;;20.06;57.86;100277.34;7315540;19;129429;-38
2022/03/12 06:59:30;;;;;;;20.38;1.92;;;;;;;20.09;57.05;100287.53;7313121;19;129203;-39
2022/03/12 07:01:56;;;;;;;40.60;4.07;;;;;;;20.03;57.57;100285.41;7314277;19;130516;-39
2022/03/12 07:04:21;;;;;;;29.98;3.00;;;;;;;20.02;57.68;100291.53;7314733;19;129719;-39
2022/03/12 07:06:48;;;;;;;33.53;3.35;;;;;;;19.99;58.58;100299.59;7312751;19;129088;-39
2022/03/12 07:09:13;;;;;;;46.55;4.00;;;;;;;20.03;58.04;100295.84;7310506;19;130391;-40
2022/03/12 07:11:39;;;;;;;37.13;3.53;;;;;;;20.02;57.55;100283.72;7313119;19;158558;-41
2022/03/12 07:14:04;;;;;;;28.65;2.83;;;;;;;20.01;57.72;100309.00;7315473;19;130428;-39
2022/03/12 07:16:30;;;;;;;27.05;2.90;;;;;;;20.01;58.01;100314.22;7314090;19;129577;-39
2022/03/12 07:18:56;;;;;;;23.88;2.35;;;;;;;20.03;58.19;100303.66;7313211;19;129043;-39
2022/03/12 07:21:22;;;;;;;28.58;2.92;;;;;;;19.97;57.77;100319.75;7313954;19;130234;-39
2022/03/12 07:23:47;;;;;;;35.95;3.50;;;;;;;20.04;57.87;100307.94;7314199;19;129298;-39
2022/03/12 07:26:13;;;;;;;25.00;2.65;;;;;;;20.01;57.73;100305.56;7312913;19;155303;-38
2022/03/12 07:28:39;;;;;;;26.30;2.45;;;;;;;19.99;58.04;100308.28;7311315;19;129231;-39
2022/03/12 07:31:04;;;;;;;38.08;3.80;;;;;;;19.97;57.94;100298.88;7313206;19;130219;-38
2022/03/12 07:33:30;;;;;;;23.85;2.45;;;;;;;20.03;57.13;100314.09;7313796;19;131078;-38
2022/03/12 07:35:55;;;;;;;31.35;3.10;;;;;;;19.91;58.01;100300.19;7310606;19;154859;-38
2022/03/12 07:38:21;;;;;;;31.90;3.05;;;;;;;19.97;57.70;100314.53;7311359;19;129172;-39
2022/03/12 07:40:46;;;;;;;24.52;2.40;;;;;;;19.89;57.67;100301.22;7314499;19;130103;-39
2022/03/12 07:43:11;;;;;;;33.75;3.35;;;;;;;19.98;57.82;100311.00;7314483;19;130281;-38
2022/03/12 07:45:37;;;;;;;25.90;2.60;;;;;;;19.97;57.78;100304.94;7310686;19;130192;-38
2022/03/12 07:48:02;;;;;;;31.10;3.20;;;;;;;20.03;57.99;100314.09;7312195;19;129019;-38
2022/03/12 07:50:28;;;;;;;22.67;2.47;;;;;;;20.01;58.00;100305.56;7314517;19;130331;-40
2022/03/12 07:52:54;;;;;;;24.40;2.42;;;;;;;20.05;57.27;100312.19;7311957;19;159270;-41
2022/03/12 07:55:19;;;;;;;35.95;3.80;;;;;;;19.92;57.87;100294.00;7312345;19;128838;-38
2022/03/12 07:57:45;;;;;;;27.98;2.65;;;;;;;20.01;57.68;100305.56;7312428;19;149157;-39
2022/03/12 08:00:12;;;;;;;30.00;2.97;;;;;;;19.98;57.63;100311.81;7311801;19;129168;-40
2022/03/12 08:02:38;;;;;;;26.50;2.60;;;;;;;20.00;57.56;100309.13;7313133;19;130285;-39
2022/03/12 08:05:04;;;;;;;36.05;3.20;;;;;;;19.99;58.11;100310.03;7312465;19;129858;-38
2022/03/12 08:07:30;;;;;;;20.90;2.33;;;;;;;20.00;57.45;100317.75;7312249;19;128957;-39
2022/03/12 08:09:59;;;;;;;39.47;3.70;;;;;;;19.99;58.00;100312.66;7311919;19;130170;-39
2022/03/12 08:12:30;;;;;;;20.13;2.20;;;;;;;19.96;58.26;100307.66;7312348;19;130294;-39
2022/03/12 08:14:55;;;;;;;53.38;4.90;;;;;;;19.94;57.58;100304.31;7309728;19;129316;-39
2022/03/12 08:17:21;;;;;;;16.40;2.20;;;;;;;19.96;57.44;100323.31;7313205;19;129105;-39
2022/03/12 08:19:46;;;;;;;38.53;3.42;;;;;;;19.99;58.08;100317.88;7309642;19;130338;-38
2022/03/12 08:22:13;;;;;;;20.67;2.53;;;;;;;20.00;57.52;100319.56;7311341;19;130406;-40
2022/03/12 08:24:38;;;;;;;23.53;2.30;;;;;;;20.02;57.14;100304.59;7313239;19;128932;-39
2022/03/12 08:27:06;;;;;;;36.85;3.00;;;;;;;19.95;57.89;100306.81;7312814;19;130956;-40
2022/03/12 08:29:31;;;;;;;20.63;2.20;;;;;;;19.94;57.63;100315.59;7310106;19;131850;-39
2022/03/12 08:31:57;;;;;;;30.85;2.85;;;;;;;19.93;58.43;100318.34;7310619;19;159491;-39
2022/03/12 08:34:23;;;;;;;27.55;2.67;;;;;;;19.94;57.97;100307.78;7310360;19;129495;-39
2022/03/12 08:36:48;;;;;;;23.90;2.60;;;;;;;19.98;58.10;100305.78;7311568;19;129095;-39
2022/03/12 08:39:15;;;;;;;41.10;3.85;;;;;;;19.95;57.86;100316.44;7307351;19;129337;-38
2022/03/12 08:41:40;;;;;;;26.52;2.63;;;;;;;19.91;58.22;100315.84;7311850;19;130330;-38
2022/03/12 08:44:06;;;;;;;34.35;3.67;;;;;;;19.92;58.69;100291.41;7310925;19;129006;-39
2022/03/12 08:46:35;;;;;;;35.03;3.33;;;;;;;19.82;57.87;100289.56;7311624;19;129032;-40
2022/03/12 08:49:00;;;;;;;25.27;2.63;;;;;;;19.91;58.07;100304.56;7307774;19;130171;-39
2022/03/12 08:51:25;;;;;;;19.88;2.05;;;;;;;19.92;58.63;100295.78;7307436;19;158537;-39
2022/03/12 08:53:50;;;;;;;22.47;2.53;;;;;;;19.92;57.69;100296.63;7309578;19;154498;-39
2022/03/12 08:56:16;;;;;;;32.17;3.03;;;;;;;19.92;58.00;100298.38;7308351;19;154380;-39
2022/03/12 08:58:41;;;;;;;31.65;3.08;;;;;;;19.95;57.51;100295.56;7307763;19;158089;-39
2022/03/12 09:01:08;;;;;;;39.40;3.70;;;;;;;19.96;57.31;100302.44;7311230;19;131132;-39
2022/03/12 09:03:33;;;;;;;35.30;3.25;;;;;;;19.93;58.06;100300.88;7309760;19;129486;-37
2022/03/12 09:05:59;;;;;;;31.52;3.00;;;;;;;19.91;58.00;100299.34;7309873;19;129332;-38
2022/03/12 09:08:25;;;;;;;28.38;2.70;;;;;;;19.91;58.02;100294.13;7308921;19;158210;-38
2022/03/12 09:10:50;;;;;;;24.48;2.47;;;;;;;19.89;58.29;100296.00;7312474;19;129527;-37
2022/03/12 09:13:18;;;;;;;24.05;2.65;;;;;;;19.90;58.00;100314.16;7309024;19;129705;-38
2022/03/12 09:15:44;;;;;;;25.33;2.45;;;;;;;19.88;58.25;100313.47;7310549;19;129078;-38
2022/03/12 09:18:10;;;;;;;26.73;2.57;;;;;;;19.90;58.39;100308.13;7308542;19;130835;-39
2022/03/12 09:20:44;;;;;;;82.68;6.93;;;;;;;19.89;57.90;100311.66;7295814;19;130380;-39
2022/03/12 09:23:10;;;;;;;28.63;2.83;;;;;;;19.88;57.88;100336.94;7308293;19;130026;-38
2022/03/12 09:25:36;;;;;;;36.63;3.08;;;;;;;19.90;58.08;100314.16;7309918;19;129575;-38
2022/03/12 09:28:02;;;;;;;26.42;2.33;;;;;;;19.89;57.92;100317.72;7308549;19;130560;-39
2022/03/12 09:30:27;;;;;;;27.55;2.55;;;;;;;19.89;57.73;100312.50;7310887;19;129603;-38
2022/03/12 09:32:53;;;;;;;28.92;2.67;;;;;;;19.89;57.73;100320.31;7307889;19;130134;-39
2022/03/12 09:35:19;;;;;;;44.65;4.18;;;;;;;19.87;57.41;100310.94;7310208;19;129513;-39
2022/03/12 09:37:45;;;;;;;23.50;2.53;;;;;;;19.87;58.32;100305.72;7309360;19;130229;-38
2022/03/12 09:40:11;;;;;;;32.38;3.33;;;;;;;19.88;58.41;100315.22;7306790;19;129127;-39
2022/03/12 09:42:36;;;;;;;23.35;2.30;;;;;;;19.77;58.07;100307.31;7308700;19;128923;-39
2022/03/12 09:45:03;;;;;;;37.25;3.40;;;;;;;19.84;58.65;100318.97;7309076;19;129071;-38
2022/03/12 09:47:28;;;;;;;18.80;2.05;;;;;;;19.85;57.83;100325.88;7310221;19;133296;-39
2022/03/12 09:49:54;;;;;;;46.13;3.72;;;;;;;19.83;58.47;100301.69;7306857;19;158568;-39
2022/03/12 09:52:20;;;;;;;22.48;2.40;;;;;;;19.88;58.05;100315.22;7318261;19;129323;-38
2022/03/12 09:54:45;;;;;;;31.88;3.08;;;;;;;19.88;57.96;100304.78;7317645;19;129211;-40
2022/03/12 09:57:11;;;;;;;25.67;2.60;;;;;;;19.91;57.36;100300.19;7315012;19;158429;-39
2022/03/12 09:59:36;;;;;;;36.45;3.13;;;;;;;19.81;56.83;100304.41;7314105;19;130386;-39
2022/03/12 10:02:02;;;;;;;38.33;4.53;;;;;;;19.89;52.32;100298.59;7314598;19;130151;-39
2022/03/12 10:04:28;;;;;;;15.75;2.80;;;;;;;19.91;52.39;100289.75;7316309;19;128998;-38
2022/03/12 10:06:54;;;;;;;49.70;5.07;;;;;;;19.85;53.89;100299.78;7317312;19;130313;-39
2022/03/12 10:09:19;;;;;;;49.85;6.35;;;;;;;19.82;54.34;100297.38;7310997;19;129880;-39
2022/03/12 10:11:45;;;;;;;40.00;4.45;;;;;;;19.80;54.69;100296.69;7316314;19;135765;-39
2022/03/12 10:14:11;;;;;;;35.03;3.85;;;;;;;19.78;54.99;100298.56;7314587;19;130920;-39
2022/03/12 10:16:36;;;;;;;27.27;3.47;;;;;;;19.75;55.02;100293.56;7317013;19;132382;-38
2022/03/12 10:19:02;;;;;;;21.60;3.53;;;;;;;19.76;52.58;100305.66;7313764;19;131252;-39
2022/03/12 10:21:27;;;;;;;34.05;4.05;;;;;;;19.73;53.91;100290.22;7316676;19;129187;-38
2022/03/12 10:23:53;;;;;;;32.20;4.03;;;;;;;19.68;55.25;100272.31;7313686;19;155412;-39
2022/03/12 10:26:18;;;;;;;54.97;6.07;;;;;;;19.76;54.45;100282.19;7312729;19;160224;-38
2022/03/12 10:28:44;;;;;;;50.85;5.32;;;;;;;19.74;53.44;100281.44;7312982;19;130723;-40
2022/03/12 10:31:12;;;;;;;34.80;4.25;;;;;;;19.74;53.43;100286.66;7315066;19;130841;-39
2022/03/12 10:33:39;;;;;;;64.32;6.32;;;;;;;19.76;54.00;100295.22;7313389;19;129475;-40
2022/03/12 10:36:12;;;;;;;43.03;4.55;;;;;;;19.73;55.12;100295.47;7314704;19;130796;-39
2022/03/12 10:38:42;;;;;;;17.05;2.80;;;;;;;19.77;54.26;100286.44;7314637;19;130451;-38
2022/03/12 10:41:09;;;;;;;41.10;4.47;;;;;;;19.79;54.69;100285.41;7314809;19;129457;-38
2022/03/12 10:43:45;;;;;;;34.30;4.45;;;;;;;19.86;55.13;100285.78;7314484;19;129089;-39
2022/03/12 10:46:19;;;;;;;38.65;4.13;;;;;;;19.83;54.95;100286.03;7314494;19;130656;-39
2022/03/12 10:48:47;;;;;;;30.65;4.13;;;;;;;19.84;54.43;100292.88;7313818;19;130727;-40
2022/03/12 10:51:12;;;;;;;22.48;3.35;;;;;;;19.86;54.81;100291.00;7316840;19;130069;-39
2022/03/12 10:53:37;;;;;;;36.75;4.00;;;;;;;19.83;55.12;100278.19;7314092;19;153964;-39
2022/03/12 10:56:05;;;;;;;14.40;2.58;;;;;;;19.70;55.65;100274.81;7313142;19;158686;-39
2022/03/12 10:58:33;;;;;;;27.80;3.58;;;;;;;19.78;55.29;100285.53;7314853;19;130424;-38
2022/03/12 11:01:00;;;;;;;26.55;3.22;;;;;;;19.76;55.43;100285.63;7313340;19;129315;-39
2022/03/12 11:03:32;;;;;;;45.75;4.90;;;;;;;19.81;55.36;100287.91;7312925;19;129553;-41
2022/03/12 11:05:58;;;;;;;30.33;3.65;;;;;;;19.78;55.79;100290.75;7315901;19;130474;-39